Time;durP1;ratioP1;P1;durP2;ratioP2;P2;SDS_P1;SDS_P2;PMS_P1;PMS_P2;Temp;Humidity;BMP_temperature;BMP_pressure;BME280_temperature;BME280_humidity;BME280_pressure;Samples;Min_cycle;Max_cycle;Signal;HPM_P1;HPM_P2
2022/12/15 00:40:20;;;;;;;41.53;24.17;;;;;;;3.57;83.34;99042.84;5073633;28;20043;-36
2022/12/15 00:42:46;;;;;;;45.80;23.67;;;;;;;3.47;83.62;99054.41;5073447;28;20012;-36
2022/12/15 00:45:11;;;;;;;42.40;23.85;;;;;;;3.53;83.89;99031.84;5071766;28;20401;-36
2022/12/15 00:47:37;;;;;;;41.63;22.90;;;;;;;3.47;83.50;99028.09;5073075;28;20210;-36
2022/12/15 01:20:21;;;;;;;40.80;23.15;;;;;;;3.54;84.36;98986.13;5072413;28;20074;-36
2022/12/15 01:22:49;;;;;;;42.47;23.67;;;;;;;3.55;85.12;99015.91;5072473;28;20520;-36
2022/12/15 01:25:16;;;;;;;42.90;23.77;;;;;;;3.56;85.03;99004.38;5072600;28;20094;-36
2022/12/15 01:27:43;;;;;;;39.42;23.52;;;;;;;3.65;84.67;98987.53;5071522;28;20054;-36
2022/12/15 01:30:10;;;;;;;42.17;23.90;;;;;;;3.62;84.52;98993.16;5072361;28;20077;-36
2022/12/15 01:32:36;;;;;;;41.55;23.67;;;;;;;3.57;84.77;99019.16;5071243;28;20017;-36
2022/12/15 01:35:03;;;;;;;41.55;23.95;;;;;;;3.45;85.98;99018.78;5072588;28;20372;-36
2022/12/15 01:37:28;;;;;;;41.30;24.90;;;;;;;3.49;85.62;99020.84;5071985;28;20510;-36
2022/12/15 01:42:38;;;;;;;38.95;22.48;;;;;;;3.74;84.18;99019.88;5072010;28;20039;-36
2022/12/15 01:45:28;;;;;;;48.55;24.27;;;;;;;3.65;84.05;99014.66;5072022;28;20020;-36
2022/12/15 01:48:16;;;;;;;42.28;23.10;;;;;;;3.46;84.67;99018.56;5072250;28;20055;-36
2022/12/15 01:50:50;;;;;;;41.03;23.75;;;;;;;3.58;85.47;99018.16;5071769;28;20035;-36
2022/12/15 01:53:16;;;;;;;38.97;23.13;;;;;;;3.51;84.03;99026.75;5071630;28;20094;-36
2022/12/15 01:55:45;;;;;;;38.45;22.73;;;;;;;3.33;83.64;99019.16;5071205;28;20021;-36
2022/12/15 01:58:14;;;;;;;38.85;21.75;;;;;;;3.44;82.95;98996.88;5071761;28;20051;-36
2022/12/15 02:00:41;;;;;;;46.20;23.48;;;;;;;3.36;82.96;99030.34;5072135;28;20028;-36
2022/12/15 02:03:06;;;;;;;43.15;23.58;;;;;;;3.34;83.31;99033.13;5071510;28;20026;-36
2022/12/15 02:05:34;;;;;;;42.58;24.13;;;;;;;3.37;83.56;99048.56;5071591;28;20099;-36
2022/12/15 02:08:01;;;;;;;40.75;24.00;;;;;;;3.46;83.45;99036.97;5071506;28;20024;-36
2022/12/15 02:10:33;;;;;;;41.50;24.95;;;;;;;3.20;84.55;99042.59;5071714;28;20036;-36
2022/12/15 02:13:13;;;;;;;43.03;25.10;;;;;;;3.17;85.05;99050.81;5071779;28;20031;-36
2022/12/15 02:15:55;;;;;;;43.95;24.60;;;;;;;3.15;83.68;99076.47;5071150;28;20021;-36
2022/12/15 02:18:34;;;;;;;45.72;25.42;;;;;;;2.88;84.86;99061.97;5071198;28;20132;-36
2022/12/15 02:21:28;;;;;;;45.35;24.02;;;;;;;2.98;85.48;99065.19;5071447;28;20059;-36
2022/12/15 02:24:27;;;;;;;47.45;26.17;;;;;;;3.25;83.95;99073.63;5071174;28;20028;-36
2022/12/15 02:26:58;;;;;;;46.10;26.10;;;;;;;3.13;83.82;99063.47;5070961;28;20020;-37
2022/12/15 02:29:23;;;;;;;45.60;27.30;;;;;;;3.33;83.68;99081.44;5071437;28;20020;-37
2022/12/15 02:31:53;;;;;;;49.58;27.30;;;;;;;3.26;83.09;99083.16;5071300;28;20515;-37
2022/12/15 02:34:41;;;;;;;47.58;25.52;;;;;;;3.25;82.75;99077.06;5071310;28;20059;-37
2022/12/15 02:37:16;;;;;;;47.83;25.85;;;;;;;3.16;82.60;99061.50;5071091;28;20545;-37
2022/12/15 02:39:42;;;;;;;44.33;25.85;;;;;;;3.23;82.16;99057.19;5071359;28;20567;-37
2022/12/15 02:42:10;;;;;;;42.15;24.77;;;;;;;3.38;81.68;99062.53;5070688;28;20020;-37
2022/12/15 02:45:08;;;;;;;44.78;24.10;;;;;;;3.39;82.41;99099.19;5051458;28;20028;-37
2022/12/15 02:47:45;;;;;;;45.53;26.27;;;;;;;3.22;82.44;99100.25;5050305;28;20478;-37
2022/12/15 02:50:46;;;;;;;48.25;26.95;;;;;;;3.12;83.27;99096.03;5050976;28;20078;-37
2022/12/15 02:53:34;;;;;;;46.00;26.10;;;;;;;2.99;83.33;99097.56;5049986;28;20033;-38
2022/12/15 02:56:12;;;;;;;46.45;26.42;;;;;;;3.10;82.99;99084.03;5050667;28;20103;-37
2022/12/15 02:58:50;;;;;;;44.65;25.27;;;;;;;3.23;81.88;99068.53;5050917;28;20515;-37
2022/12/15 03:01:26;;;;;;;43.75;24.70;;;;;;;3.37;81.27;99082.78;5050918;28;20036;-36
2022/12/15 03:03:52;;;;;;;47.65;25.67;;;;;;;3.55;80.12;99073.78;5050958;28;20083;-37
2022/12/15 03:06:19;;;;;;;43.10;25.08;;;;;;;3.52;80.28;99070.50;5050546;28;20112;-37
2022/12/15 03:08:44;;;;;;;43.30;24.20;;;;;;;3.31;81.41;99065.03;5050834;28;20061;-37
2022/12/15 03:11:10;;;;;;;43.47;24.95;;;;;;;3.40;81.04;99079.78;5051106;28;20055;-37
2022/12/15 03:13:35;;;;;;;42.83;24.88;;;;;;;3.08;82.18;99067.59;5051317;28;20028;-36
2022/12/15 03:16:00;;;;;;;42.67;23.85;;;;;;;3.18;83.05;99078.75;5050676;28;20028;-43
2022/12/15 03:18:26;;;;;;;45.35;25.25;;;;;;;3.51;82.06;99078.56;5050100;28;20511;-36
2022/12/15 03:20:52;;;;;;;40.08;23.83;;;;;;;3.40;82.09;99071.06;5050734;28;20021;-36
2022/12/15 03:23:18;;;;;;;44.45;24.02;;;;;;;3.25;82.08;99071.78;5063383;28;20058;-36
2022/12/15 03:25:46;;;;;;;44.42;25.02;;;;;;;3.20;83.17;99086.44;5070352;28;20442;-36
2022/12/15 03:28:12;;;;;;;44.45;24.98;;;;;;;3.27;83.10;99064.56;5070293;28;20024;-36
2022/12/15 03:30:37;;;;;;;45.47;25.10;;;;;;;3.23;83.28;99072.97;5070635;28;20024;-37
2022/12/15 03:33:03;;;;;;;46.00;25.27;;;;;;;3.35;82.51;99058.44;5070366;28;20028;-36
2022/12/15 03:35:29;;;;;;;45.60;25.38;;;;;;;3.41;82.44;99060.38;5070501;28;20089;-36
2022/12/15 03:37:54;;;;;;;40.67;23.27;;;;;;;3.34;82.30;99059.44;5070654;28;20029;-36
2022/12/15 03:40:20;;;;;;;42.85;23.55;;;;;;;3.35;81.82;99062.88;5070222;28;20108;-36
2022/12/15 03:42:48;;;;;;;43.85;24.02;;;;;;;3.47;81.83;99059.69;5070541;28;20024;-36
2022/12/15 03:45:19;;;;;;;41.10;22.02;;;;;;;3.12;83.18;99053.97;5070648;28;20099;-36
2022/12/15 03:47:45;;;;;;;42.42;23.90;;;;;;;3.28;82.87;99058.31;5070527;28;20448;-36
2022/12/15 03:50:13;;;;;;;45.47;22.73;;;;;;;3.28;82.09;99044.34;5070260;28;20020;-37
2022/12/15 03:52:39;;;;;;;40.60;22.35;;;;;;;3.47;81.56;99043.91;5070462;28;20417;-35
2022/12/15 03:55:05;;;;;;;38.22;22.45;;;;;;;3.49;82.28;99041.91;5071473;28;20059;-35
2022/12/15 03:57:30;;;;;;;36.65;20.90;;;;;;;3.32;82.94;99038.56;5073789;28;20044;-36
2022/12/15 03:59:56;;;;;;;40.25;22.27;;;;;;;3.57;82.02;99033.13;5074206;28;20020;-40
2022/12/15 04:02:21;;;;;;;39.47;22.65;;;;;;;3.70;81.39;99043.91;5074259;28;20494;-37
2022/12/15 04:04:47;;;;;;;39.15;22.02;;;;;;;3.63;81.20;99031.63;5073890;28;20042;-37
2022/12/15 04:07:13;;;;;;;40.00;23.23;;;;;;;3.60;80.78;99029.31;5073735;28;20400;-37
2022/12/15 04:09:38;;;;;;;39.42;22.38;;;;;;;3.56;80.91;99023.63;5073739;28;20035;-37
2022/12/15 04:12:04;;;;;;;37.00;21.30;;;;;;;3.57;80.96;99041.03;5073623;28;20027;-35
2022/12/15 04:14:29;;;;;;;73.75;38.90;;;;;;;3.63;81.22;99036.88;5074004;28;20032;-36
2022/12/15 04:16:55;;;;;;;36.75;21.98;;;;;;;3.72;80.93;99031.38;5072998;28;20060;-36
2022/12/15 04:22:05;;;;;;;38.28;21.33;;;;;;;3.88;79.92;99032.25;5073685;28;20071;-37
2022/12/15 05:32:51;;;;;;;42.05;23.92;;;;;;;4.07;80.50;99080.94;5072334;28;20325;-37
2022/12/15 05:35:17;;;;;;;39.90;22.27;;;;;;;4.03;81.03;99084.94;5072079;28;20021;-36
2022/12/15 05:37:42;;;;;;;46.08;24.95;;;;;;;4.19;80.45;99095.34;5071365;28;20043;-36
2022/12/15 05:40:08;;;;;;;45.95;24.33;;;;;;;3.90;81.56;99094.25;5072295;28;20123;-36
2022/12/15 05:42:33;;;;;;;39.67;22.65;;;;;;;4.02;82.00;99096.47;5071766;28;20032;-36
2022/12/15 05:44:59;;;;;;;41.97;23.60;;;;;;;4.03;82.33;99109.44;5072175;28;20025;-39
2022/12/15 05:47:25;;;;;;;43.03;23.77;;;;;;;4.83;80.21;99117.78;5071331;28;20024;-36
2022/12/15 05:49:50;;;;;;;43.25;24.10;;;;;;;4.49;81.47;99129.63;5070703;28;20476;-37
2022/12/15 05:52:16;;;;;;;45.13;24.63;;;;;;;4.24;83.24;99113.25;5071333;28;20094;-37
2022/12/15 05:54:41;;;;;;;44.28;24.88;;;;;;;5.04;80.38;99119.69;5072263;28;20024;-37
2022/12/15 05:57:07;;;;;;;46.88;27.02;;;;;;;4.81;80.02;99114.50;5070961;28;20075;-37
2022/12/15 05:59:32;;;;;;;47.13;26.17;;;;;;;4.69;80.17;99108.88;5062296;28;20070;-45
2022/12/15 06:01:58;;;;;;;42.47;23.80;;;;;;;4.72;80.19;99128.75;5051248;28;20031;-44
2022/12/15 06:04:23;;;;;;;44.92;24.35;;;;;;;4.56;81.52;99143.75;5051087;28;20032;-44
2022/12/15 06:06:49;;;;;;;41.47;24.33;;;;;;;4.65;80.73;99158.50;5051207;28;20074;-43
2022/12/15 06:09:14;;;;;;;41.30;22.75;;;;;;;5.12;78.69;99153.06;5050538;28;20508;-44
2022/12/15 06:11:40;;;;;;;41.55;23.48;;;;;;;4.89;79.02;99133.69;5051397;28;20063;-44
2022/12/15 06:14:05;;;;;;;45.25;24.83;;;;;;;4.89;79.01;99138.97;5051266;28;20413;-44
2022/12/15 06:16:31;;;;;;;61.63;35.05;;;;;;;4.64;79.69;99125.22;5050934;28;20389;-44
2022/12/15 06:18:58;;;;;;;43.58;24.10;;;;;;;4.55;80.76;99131.59;5050311;28;20033;-45
2022/12/15 06:21:27;;;;;;;45.95;24.15;;;;;;;5.18;79.55;99144.41;5051257;28;20086;-44
2022/12/15 06:23:55;;;;;;;44.38;25.05;;;;;;;5.46;77.46;99140.13;5068380;28;20032;-44
2022/12/15 06:26:24;;;;;;;41.53;21.40;;;;;;;5.17;78.18;99153.34;5070789;28;20385;-43
2022/12/15 06:28:50;;;;;;;36.10;21.55;;;;;;;4.92;79.05;99156.25;5070981;28;20165;-44
2022/12/15 06:31:21;;;;;;;42.75;22.52;;;;;;;4.86;79.83;99156.97;5069914;28;20146;-44
2022/12/15 06:33:47;;;;;;;42.28;22.13;;;;;;;4.93;78.99;99159.69;5070968;28;20043;-43
2022/12/15 06:36:14;;;;;;;40.70;21.55;;;;;;;4.98;79.21;99163.44;5070534;28;20464;-43
2022/12/15 06:38:42;;;;;;;37.13;21.25;;;;;;;5.09;79.26;99168.25;5070840;28;20021;-43
2022/12/15 06:41:10;;;;;;;37.58;21.65;;;;;;;5.02;79.43;99161.25;5070842;28;20377;-45
2022/12/15 06:43:35;;;;;;;42.15;22.08;;;;;;;5.31;78.46;99164.88;5070770;28;20025;-45
2022/12/15 06:46:01;;;;;;;40.78;21.50;;;;;;;5.24;78.96;99178.81;5070289;28;20013;-45
2022/12/15 06:48:27;;;;;;;39.35;21.58;;;;;;;5.17;79.08;99166.53;5071079;28;20115;-44
2022/12/15 06:50:53;;;;;;;40.40;21.08;;;;;;;5.36;78.57;99178.34;5070045;28;20103;-45
2022/12/15 06:53:20;;;;;;;39.50;20.95;;;;;;;5.35;79.23;99172.25;5070673;28;20132;-44
2022/12/15 06:55:46;;;;;;;40.47;20.92;;;;;;;5.73;77.15;99176.53;5070409;28;20028;-45
2022/12/15 06:58:12;;;;;;;40.25;21.05;;;;;;;5.93;76.62;99174.94;5070666;28;20099;-43
2022/12/15 07:00:39;;;;;;;43.35;21.05;;;;;;;5.80;77.05;99180.91;5070244;28;20436;-44
2022/12/15 07:03:16;;;;;;;40.35;21.52;;;;;;;5.83;76.81;99183.19;5063818;28;20025;-43
2022/12/15 07:05:43;;;;;;;39.03;20.73;;;;;;;5.76;76.35;99171.72;5070139;28;20468;-43
2022/12/15 07:08:10;;;;;;;43.88;22.38;;;;;;;5.79;77.05;99174.00;5069417;28;20028;-44
2022/12/15 07:10:40;;;;;;;36.83;20.67;;;;;;;5.81;76.91;99171.19;5068352;28;20508;-44
2022/12/15 07:13:08;;;;;;;39.42;19.90;;;;;;;5.94;76.63;99168.69;5069775;28;20036;-44
2022/12/15 07:15:34;;;;;;;38.92;19.75;;;;;;;5.91;76.65;99158.47;5069285;28;20032;-43
2022/12/15 07:17:59;;;;;;;41.75;20.77;;;;;;;6.24;76.70;99139.50;5068403;28;20055;-44
2022/12/15 07:20:24;;;;;;;36.50;19.55;;;;;;;6.19;76.25;99163.88;5068522;28;20055;-42
2022/12/15 07:22:51;;;;;;;38.90;20.10;;;;;;;6.14;76.65;99194.50;5067917;28;20036;-44
2022/12/15 07:25:17;;;;;;;37.10;19.65;;;;;;;6.14;76.21;99192.66;5068279;28;20033;-44
2022/12/15 07:27:43;;;;;;;40.28;21.08;;;;;;;5.88;77.91;99199.28;5068007;28;20044;-44
2022/12/15 07:30:09;;;;;;;36.70;19.60;;;;;;;6.13;77.65;99195.50;5069923;28;20533;-44
2022/12/15 07:32:35;;;;;;;34.00;19.10;;;;;;;6.78;75.40;99217.44;5074225;28;20031;-45
2022/12/15 07:35:03;;;;;;;36.92;19.35;;;;;;;7.15;74.54;99218.09;5073876;28;20045;-44
2022/12/15 07:37:29;;;;;;;34.35;19.00;;;;;;;7.62;73.59;99214.69;5073559;28;20071;-44
2022/12/15 07:39:54;;;;;;;31.55;17.98;;;;;;;8.26;69.25;99201.22;5074225;28;20490;-45
2022/12/15 07:42:19;;;;;;;33.08;17.58;;;;;;;8.54;69.27;99201.91;5073707;28;20503;-45
2022/12/15 07:44:45;;;;;;;30.55;16.92;;;;;;;8.61;68.58;99223.94;5073834;28;20040;-46
2022/12/15 07:47:10;;;;;;;30.92;16.77;;;;;;;8.84;68.35;99235.19;5073655;28;20020;-45
2022/12/15 07:49:36;;;;;;;29.63;17.27;;;;;;;8.99;68.33;99225.97;5073824;28;20021;-45
2022/12/15 07:52:03;;;;;;;29.65;16.58;;;;;;;8.94;66.98;99227.63;5073197;28;20025;-46
2022/12/15 07:54:29;;;;;;;30.92;18.25;;;;;;;9.05;66.97;99223.53;5073360;28;20085;-44
2022/12/15 07:56:54;;;;;;;28.85;16.55;;;;;;;9.16;67.09;99221.06;5072900;28;20025;-45
2022/12/15 07:59:20;;;;;;;26.35;14.90;;;;;;;9.64;65.52;99213.78;5073311;28;20554;-45
2022/12/15 08:01:45;;;;;;;27.63;15.50;;;;;;;9.96;64.29;99199.53;5073344;28;20063;-44
2022/12/15 08:04:11;;;;;;;26.02;14.90;;;;;;;10.87;62.26;99228.63;5073372;28;20020;-44
2022/12/15 08:06:36;;;;;;;26.08;15.32;;;;;;;10.41;63.21;99201.34;5072889;28;20032;-44
2022/12/15 08:09:01;;;;;;;27.10;15.55;;;;;;;10.79;61.72;99212.94;5073082;28;20057;-45
2022/12/15 08:11:27;;;;;;;28.67;17.02;;;;;;;11.48;61.20;99216.34;5073201;28;20071;-47
2022/12/15 08:13:52;;;;;;;24.98;14.10;;;;;;;11.55;59.36;99212.56;5073418;28;20059;-45
2022/12/15 08:16:18;;;;;;;26.52;14.75;;;;;;;11.43;59.25;99225.00;5072545;28;20025;-45
2022/12/15 08:18:44;;;;;;;25.77;14.32;;;;;;;11.33;58.78;99214.06;5072881;28;20441;-47
2022/12/15 08:21:10;;;;;;;27.15;14.70;;;;;;;12.10;57.86;99219.72;5072969;28;20031;-44
2022/12/15 08:23:38;;;;;;;30.08;16.50;;;;;;;11.77;57.91;99214.00;5072911;28;20032;-44
2022/12/15 08:26:10;;;;;;;27.77;15.57;;;;;;;11.33;61.15;99212.22;5072590;28;20541;-44
2022/12/15 08:28:37;;;;;;;32.42;18.23;;;;;;;11.74;59.83;99201.91;5072662;28;20043;-45
2022/12/15 08:31:15;;;;;;;27.98;16.27;;;;;;;12.01;58.31;99221.06;5073032;28;20021;-44
2022/12/15 08:33:42;;;;;;;26.38;14.20;;;;;;;11.85;58.39;99232.34;5072507;28;20043;-45
2022/12/15 08:36:10;;;;;;;23.33;13.80;;;;;;;12.01;58.54;99233.59;5072022;28;20099;-45
2022/12/15 08:38:37;;;;;;;22.65;12.95;;;;;;;12.56;56.99;99228.09;5072062;28;20109;-44
2022/12/15 08:41:13;;;;;;;21.17;12.75;;;;;;;12.48;56.63;99228.44;5072068;28;20083;-46
2022/12/15 08:43:39;;;;;;;20.08;12.93;;;;;;;12.23;56.94;99217.91;5072322;28;20055;-43
2022/12/15 08:46:05;;;;;;;22.35;12.80;;;;;;;12.47;57.04;99232.97;5072321;28;20044;-44
2022/12/15 08:48:30;;;;;;;21.33;12.32;;;;;;;12.47;56.34;99235.63;5072046;28;20210;-44
2022/12/15 08:50:58;;;;;;;21.98;12.73;;;;;;;12.07;58.12;99238.84;5072183;28;20028;-43
2022/12/15 08:53:24;;;;;;;19.50;12.25;;;;;;;12.12;57.89;99233.63;5072484;28;20170;-43
2022/12/15 08:55:49;;;;;;;18.98;11.73;;;;;;;12.66;56.45;99230.19;5072206;28;20104;-45
2022/12/15 08:58:15;;;;;;;19.00;11.90;;;;;;;12.50;56.45;99232.47;5072531;28;20171;-44
2022/12/15 09:00:40;;;;;;;19.70;11.70;;;;;;;12.35;56.13;99233.97;5071948;28;20468;-44
2022/12/15 09:03:06;;;;;;;24.70;14.77;;;;;;;12.01;58.45;99229.06;5072577;28;20028;-44
2022/12/15 09:05:34;;;;;;;19.02;11.43;;;;;;;12.74;55.48;99216.53;5071705;28;20503;-46
2022/12/15 09:07:59;;;;;;;18.33;11.50;;;;;;;12.46;55.59;99222.50;5071924;28;20440;-44
2022/12/15 09:10:25;;;;;;;18.80;11.05;;;;;;;12.04;57.02;99220.63;5071602;28;20020;-43
2022/12/15 09:12:50;;;;;;;24.10;14.77;;;;;;;12.63;56.67;99228.00;5071921;28;20027;-44
2022/12/15 09:15:16;;;;;;;23.40;14.52;;;;;;;12.80;55.25;99220.13;5071708;28;20134;-44
2022/12/15 09:17:43;;;;;;;15.93;10.52;;;;;;;12.77;54.77;99233.94;5071688;28;20047;-46
2022/12/15 09:20:08;;;;;;;22.63;14.15;;;;;;;12.78;55.48;99235.56;5071218;28;20095;-46
2022/12/15 09:22:35;;;;;;;17.02;10.85;;;;;;;13.55;54.02;99230.13;5071549;28;20158;-45
2022/12/15 09:25:01;;;;;;;17.38;10.82;;;;;;;13.41;53.45;99226.09;5071553;28;20400;-43
2022/12/15 09:27:29;;;;;;;15.77;10.57;;;;;;;13.21;54.06;99229.06;5071089;28;20449;-44
2022/12/15 09:29:55;;;;;;;16.85;10.52;;;;;;;13.23;54.07;99232.31;5071845;28;20155;-44
2022/12/15 09:32:20;;;;;;;19.00;11.20;;;;;;;13.02;53.87;99225.72;5070955;28;20020;-45
2022/12/15 09:34:45;;;;;;;22.13;12.05;;;;;;;12.36;55.24;99214.25;5071676;28;20115;-46
2022/12/15 09:37:12;;;;;;;17.90;11.00;;;;;;;12.13;56.21;99205.94;5071236;28;20051;-44
2022/12/15 09:39:38;;;;;;;16.73;10.60;;;;;;;13.02;54.85;99220.38;5071065;28;20035;-43
2022/12/15 09:42:03;;;;;;;15.60;10.02;;;;;;;13.20;53.67;99220.25;5070930;28;20017;-44
2022/12/15 09:44:31;;;;;;;17.27;10.75;;;;;;;12.98;54.90;99235.22;5071102;28;20314;-46
2022/12/15 09:47:04;;;;;;;13.93;9.82;;;;;;;13.02;55.05;99220.38;5070872;28;20024;-45
2022/12/15 09:50:00;;;;;;;18.95;12.02;;;;;;;13.67;53.39;99235.47;5071279;28;20415;-45
2022/12/15 09:52:45;;;;;;;18.10;11.13;;;;;;;12.89;55.32;99238.25;5070249;28;20077;-44
2022/12/15 09:55:23;;;;;;;18.70;11.00;;;;;;;12.56;56.07;99237.97;5071033;28;20111;-45
2022/12/15 09:57:52;;;;;;;15.60;10.95;;;;;;;13.29;54.86;99240.25;5070816;28;20464;-44
2022/12/15 10:00:20;;;;;;;12.65;8.68;;;;;;;13.47;53.24;99225.94;5070872;28;20017;-45
2022/12/15 10:03:08;;;;;;;12.57;8.70;;;;;;;13.06;53.97;99233.03;5070955;28;20039;-44
2022/12/15 10:05:44;;;;;;;16.98;10.10;;;;;;;12.94;54.84;99236.75;5070921;28;20251;-44
2022/12/15 10:08:12;;;;;;;22.08;13.25;;;;;;;14.08;52.55;99225.56;5070713;28;20024;-46
2022/12/15 10:10:41;;;;;;;15.00;10.05;;;;;;;12.84;54.74;99223.97;5070630;28;20345;-45
2022/12/15 10:13:19;;;;;;;14.23;9.63;;;;;;;12.46;56.33;99233.19;5070962;28;20089;-44
2022/12/15 10:15:54;;;;;;;15.95;9.93;;;;;;;13.04;55.89;99250.31;5070713;28;20039;-44
2022/12/15 10:18:30;;;;;;;18.80;10.50;;;;;;;13.30;54.37;99228.50;5070245;28;20119;-43
2022/12/15 10:20:59;;;;;;;17.27;9.90;;;;;;;13.27;54.33;99231.66;5071074;28;20090;-44
2022/12/15 10:23:25;;;;;;;27.17;17.37;;;;;;;13.71;53.47;99230.44;5070501;28;20425;-44
2022/12/15 10:26:18;;;;;;;17.65;12.18;;;;;;;14.14;53.19;99216.56;5070333;28;20096;-45
2022/12/15 10:28:58;;;;;;;16.30;10.43;;;;;;;13.59;53.80;99228.59;5062347;28;20101;-43
2022/12/15 10:31:24;;;;;;;;;;;;;;;13.34;53.82;99222.72;5070967;28;20035;-44
2022/12/15 10:33:59;;;;;;;18.08;10.23;;;;;;;13.37;54.39;99209.69;5070700;28;20427;-43
2022/12/15 10:36:25;;;;;;;16.58;9.90;;;;;;;13.95;52.82;99202.56;5070054;28;20046;-46
2022/12/15 10:38:50;;;;;;;14.07;9.25;;;;;;;13.68;52.67;99210.34;5070504;28;20032;-44
2022/12/15 10:41:26;;;;;;;15.95;9.50;;;;;;;13.35;53.81;99201.09;5070378;28;20183;-43
2022/12/15 10:43:53;;;;;;;16.60;10.48;;;;;;;13.77;53.52;99205.44;5070235;28;20503;-43
2022/12/15 10:46:30;;;;;;;15.43;9.80;;;;;;;13.81;52.99;99199.38;5070045;28;20099;-42
2022/12/15 10:48:58;;;;;;;16.90;10.32;;;;;;;13.50;53.71;99200.63;5070202;28;20085;-44
2022/12/15 10:51:44;;;;;;;19.15;11.27;;;;;;;13.48;53.94;99208.88;5070179;28;20560;-44
2022/12/15 10:54:13;;;;;;;17.92;11.52;;;;;;;13.67;53.00;99216.75;5070467;28;20112;-44
2022/12/15 10:56:44;;;;;;;21.50;12.70;;;;;;;13.46;54.11;99224.34;5069596;28;20122;-44
2022/12/15 10:59:33;;;;;;;16.15;10.30;;;;;;;13.35;54.51;99230.50;5070772;28;20043;-45
2022/12/15 11:02:19;;;;;;;17.92;10.52;;;;;;;14.28;52.25;99225.94;5070262;28;20085;-46
2022/12/15 11:04:57;;;;;;;18.33;11.07;;;;;;;13.61;54.09;99220.34;5070186;28;20034;-44
2022/12/15 11:07:27;;;;;;;17.20;10.60;;;;;;;13.48;54.58;99235.59;5070212;28;20464;-47
2022/12/15 11:09:59;;;;;;;16.58;10.68;;;;;;;13.58;54.59;99237.69;5070611;28;20032;-45
2022/12/15 11:15:20;;;;;;;16.77;10.05;;;;;;;13.64;53.20;99228.69;5070066;28;20063;-43
2022/12/15 11:17:51;;;;;;;17.38;10.88;;;;;;;13.11;54.82;99230.47;5069448;28;20056;-43
2022/12/15 11:20:29;;;;;;;16.00;10.68;;;;;;;13.40;54.41;99237.81;5070431;28;20534;-44
2022/12/15 11:23:01;;;;;;;19.13;10.80;;;;;;;13.91;53.61;99248.75;5069488;28;20171;-44
2022/12/15 11:25:37;;;;;;;19.58;12.18;;;;;;;13.29;54.51;99244.78;5069594;28;20100;-45
2022/12/15 11:28:10;;;;;;;18.35;10.55;;;;;;;13.15;55.50;99241.50;5069847;28;20020;-44
2022/12/15 11:30:51;;;;;;;17.00;10.45;;;;;;;13.82;53.51;99248.31;5069102;28;20364;-43
2022/12/15 11:33:16;;;;;;;19.92;12.18;;;;;;;13.73;53.98;99239.03;5070174;28;20042;-45
2022/12/15 11:35:49;;;;;;;17.60;11.00;;;;;;;13.41;54.49;99234.09;5069781;28;20095;-44
2022/12/15 11:38:46;;;;;;;18.58;11.68;;;;;;;14.24;52.84;99234.66;5071476;28;20040;-45
2022/12/15 11:41:34;;;;;;;20.25;13.00;;;;;;;14.39;51.89;99232.28;5070162;28;20115;-44
2022/12/15 11:44:14;;;;;;;20.92;12.43;;;;;;;13.69;53.53;99236.84;5070007;28;20115;-46
2022/12/15 11:46:45;;;;;;;;;;;;;;;13.92;53.98;99226.28;5070152;28;20013;-44
2022/12/15 11:49:29;;;;;;;19.13;12.48;;;;;;;14.70;51.29;99232.84;5069678;28;19915;-45
2022/12/15 11:52:17;;;;;;;21.20;12.13;;;;;;;14.07;52.71;99240.00;5068377;28;20488;-45
2022/12/15 11:54:50;;;;;;;65.45;28.65;;;;;;;14.20;53.22;99244.22;5069123;28;20089;-45
2022/12/15 11:57:37;;;;;;;34.08;17.58;;;;;;;14.85;51.44;99243.78;5067739;28;20461;-45
2022/12/15 12:00:20;;;;;;;20.77;11.10;;;;;;;14.46;52.00;99246.31;5069146;28;20124;-45
2022/12/15 12:03:07;;;;;;;20.17;11.02;;;;;;;13.11;55.39;99249.16;5069578;28;20017;-44
2022/12/15 12:05:38;;;;;;;23.73;11.23;;;;;;;13.88;54.25;99250.06;5069692;28;20032;-44
2022/12/15 12:08:30;;;;;;;21.48;10.80;;;;;;;13.55;54.75;99243.47;5069463;28;20345;-45
2022/12/15 12:11:09;;;;;;;18.25;10.05;;;;;;;13.53;54.59;99242.91;5069216;28;20128;-46
2022/12/15 12:13:37;;;;;;;19.65;11.77;;;;;;;14.27;53.24;99242.22;5069871;28;20032;-45
2022/12/15 12:16:23;;;;;;;20.02;11.32;;;;;;;14.57;52.76;99247.34;5070549;28;20025;-47
2022/12/15 12:19:00;;;;;;;27.92;12.68;;;;;;;14.15;52.94;99233.44;5073336;28;20048;-44
2022/12/15 12:21:31;;;;;;;21.00;11.70;;;;;;;13.89;54.12;99246.31;5072984;28;20172;-45
2022/12/15 12:24:00;;;;;;;20.20;10.85;;;;;;;14.32;52.47;99239.66;5073335;28;20655;-44
2022/12/15 12:26:44;;;;;;;22.67;12.55;;;;;;;13.86;54.67;99252.16;5073213;28;20016;-44
2022/12/15 12:29:30;;;;;;;22.48;11.77;;;;;;;14.02;54.64;99261.28;5072077;28;20028;-45
2022/12/15 12:32:33;;;;;;;20.60;11.45;;;;;;;14.92;52.52;99261.56;5072729;28;20035;-45
2022/12/15 12:35:01;;;;;;;18.27;11.05;;;;;;;14.62;52.16;99260.81;5072984;28;20024;-45
2022/12/15 12:37:38;;;;;;;18.35;11.18;;;;;;;14.13;53.29;99254.28;5072408;28;20039;-45
2022/12/15 12:40:17;;;;;;;18.20;10.60;;;;;;;14.74;52.29;99262.63;5072628;28;20089;-45
2022/12/15 12:42:53;;;;;;;19.92;10.55;;;;;;;14.96;51.69;99257.34;5072516;28;20107;-45
2022/12/15 12:45:24;;;;;;;18.58;10.48;;;;;;;14.60;52.14;99264.78;5072849;28;20074;-45
2022/12/15 12:47:53;;;;;;;17.60;11.40;;;;;;;14.53;52.43;99267.59;5072246;28;20016;-43
2022/12/15 12:50:22;;;;;;;16.80;10.60;;;;;;;15.07;51.44;99275.19;5072652;28;20097;-45
2022/12/15 12:52:50;;;;;;;;;;;;;;;14.85;52.31;99269.78;5072803;28;20032;-44
2022/12/15 12:55:37;;;;;;;19.52;11.13;;;;;;;14.72;52.60;99276.25;5072010;28;20363;-46
2022/12/15 12:58:02;;;;;;;23.45;12.55;;;;;;;15.27;51.54;99277.41;5072502;28;20078;-45
2022/12/15 13:00:30;;;;;;;21.77;12.43;;;;;;;14.87;52.13;99286.41;5072341;28;20033;-44
2022/12/15 13:03:28;;;;;;;21.67;11.63;;;;;;;14.40;53.07;99281.28;5071783;28;20029;-45
2022/12/15 13:05:53;;;;;;;19.30;11.27;;;;;;;14.99;52.18;99286.34;5037746;28;20082;-44
2022/12/15 13:08:49;;;;;;;22.98;12.30;;;;;;;14.85;51.94;99297.38;5072063;28;20020;-44
2022/12/15 13:11:54;;;;;;;21.05;10.77;;;;;;;14.36;53.26;99305.03;5072493;28;20109;-45
2022/12/15 13:14:33;;;;;;;22.30;12.20;;;;;;;14.48;52.77;99297.75;5071973;28;20052;-44
2022/12/15 13:17:10;;;;;;;27.90;13.65;;;;;;;14.04;54.28;99310.81;5071363;28;20492;-46
2022/12/15 13:20:14;;;;;;;25.75;13.05;;;;;;;13.50;56.15;99326.25;5071752;28;20064;-45
2022/12/15 13:22:41;;;;;;;22.92;12.63;;;;;;;13.35;57.25;99333.94;5071476;28;20033;-45
2022/12/15 13:25:31;;;;;;;24.42;11.95;;;;;;;13.45;56.98;99328.81;5071724;28;20029;-45
2022/12/15 13:27:59;;;;;;;25.15;12.07;;;;;;;12.96;57.88;99286.19;5071649;28;20036;-44
2022/12/15 13:30:25;;;;;;;25.00;11.63;;;;;;;13.10;58.29;99335.72;5071922;28;20043;-45
2022/12/15 13:32:53;;;;;;;22.60;12.25;;;;;;;13.86;56.78;99343.09;5071799;28;20028;-47
2022/12/15 13:35:30;;;;;;;23.73;11.30;;;;;;;13.30;57.55;99340.75;5071473;28;20468;-44
2022/12/15 13:37:58;;;;;;;19.00;10.88;;;;;;;13.14;58.41;99338.75;5071365;28;20032;-45
2022/12/15 13:40:23;;;;;;;18.17;10.68;;;;;;;13.47;57.79;99340.88;5071911;28;20514;-46
2022/12/15 13:43:27;;;;;;;22.02;10.88;;;;;;;13.65;56.88;99326.59;5071362;28;20051;-46
2022/12/15 13:45:57;;;;;;;20.70;11.10;;;;;;;13.21;58.24;99330.59;5062112;28;20036;-46
2022/12/15 13:48:43;;;;;;;19.50;11.18;;;;;;;13.32;58.37;99345.88;5071415;28;20029;-45
2022/12/15 13:51:17;;;;;;;20.27;10.75;;;;;;;13.34;58.03;99351.78;5071247;28;20421;-46
2022/12/15 13:53:57;;;;;;;18.13;11.20;;;;;;;13.21;58.70;99343.97;5071206;28;20031;-46
2022/12/15 13:56:34;;;;;;;20.58;10.57;;;;;;;12.94;59.78;99343.56;5070873;28;20420;-43
2022/12/15 13:59:05;;;;;;;20.85;11.15;;;;;;;13.13;58.83;99344.31;5071208;28;20081;-46
2022/12/15 14:01:31;;;;;;;19.55;11.02;;;;;;;13.01;59.60;99355.78;5071314;28;20401;-47
2022/12/15 14:03:56;;;;;;;28.15;12.43;;;;;;;12.67;61.06;99349.28;5071334;28;20123;-44
2022/12/15 14:06:22;;;;;;;21.77;11.55;;;;;;;12.95;60.38;99351.34;5070788;28;20074;-44